KSEAKBLI

Guest
Details From KSEA - Seattle Tacoma Intl
To KBLI - BELLINGHAM INTL
Flight Number -
Tags decoded
Created
Modified
Stats Distance 92 nm / 170 km
Max Altitude 0 ft / 0 m
Waypoints 4
Social Downloads 5
Likes 0
Share VATSIM

Download

Looking for another format? Having issues loading an existing format? Contact us
Advertisement - Login to hide

Notes

Requested: KSEA BELLU KBVS KBLI

Route

KSEA BELLU KBVS KBLI

ID Type Via Altitude Latitude Longitude Leg Dist Tot Dist Heading (true) Name
O KSEA APT - 0 ft / 0 m 47.45019˚ -122.31232˚ - 0 nm - Seattle Tacoma Intl
BELLU FIX - 0 ft / 0 m 48.53384˚ -122.53652˚ 65 nm 65 nm 352° / 352° -
KBVS APT - 0 ft / 0 m 48.46986˚ -122.42046˚ 6 nm 71 nm 130° / 130° SKAGIT RGNL
O KBLI APT - 0 ft / 0 m 48.79261˚ -122.53753˚ 19 nm 91 nm 347° / 346° BELLINGHAM INTL

Altitude Profile

Advertisement - Login to hide

KSEA

Details ICAO KSEA (SEA)
Name Seattle Tacoma Intl
Region United States
Timezone America/Los_Angeles (UTC-8.0)
Stats Elevation 433 ft / 132 m (AMSL)
Location 47.450188° -122.312320°
Runways 3
Magnetic Variation 15.671° E

METAR

KSEA 181653Z 14009KT 10SM SCT060 SCT160 BKN250 07/04 A2985 RMK AO2 SLP114 T00670039

Decode

TAF

TAF AMD KSEA 181415Z 1814/1918 18012G18KT P6SM -SHRA SCT025 SCT050 BKN070 FM181800 20012G20KT P6SM -SHRA SCT025 BKN050 FM190300 18010KT P6SM -SHRA SCT025 OVC045

Decode

Departure Runways

ID Width Length Bearing (true) Bearing (mag) Surface Threshold Offset Overrun Length
16C 151 ft / 46 m 9,429 ft / 2,874 m 180.34° 164.67° Concrete 0 ft / 0 m 223 ft / 68 m
16L 151 ft / 46 m 11,904 ft / 3,628 m 180.34° 164.67° Concrete 0 ft / 0 m 151 ft / 46 m
16R 151 ft / 46 m 8,503 ft / 2,592 m 180.34° 164.67° Concrete 0 ft / 0 m 164 ft / 50 m
34C 151 ft / 46 m 9,429 ft / 2,874 m 0.34° 344.67° Concrete 0 ft / 0 m 394 ft / 120 m
34L 151 ft / 46 m 8,503 ft / 2,592 m 0.34° 344.67° Concrete 0 ft / 0 m 394 ft / 120 m
34R 151 ft / 46 m 11,904 ft / 3,628 m 0.34° 344.67° Concrete 0 ft / 0 m 400 ft / 122 m

KBLI

Details ICAO KBLI (BLI)
Name BELLINGHAM INTL
Region United States
Timezone America/Los_Angeles (UTC-8.0)
Stats Elevation 170 ft / 52 m (AMSL)
Location 48.792615° -122.537535°
Runways 1
Magnetic Variation 16.038° E

METAR

KBLI 181725Z 15016G28KT 10SM FEW023 BKN075 BKN090 09/04 A2976 RMK AO2 PK WND 16028/1718 T00890044

Decode

TAF

TAF KBLI 181120Z 1812/1912 16013KT P6SM SCT021 BKN035 FM181600 17013G22KT P6SM -SHRA SCT025 BKN040

Decode

Destination Runways

ID Width Length Bearing (true) Bearing (mag) Surface Threshold Offset Overrun Length
16 151 ft / 46 m 6,755 ft / 2,059 m 179.88° 163.84° Asphalt 0 ft / 0 m 0 ft / 0 m
34 151 ft / 46 m 6,755 ft / 2,059 m 359.88° 343.84° Asphalt 0 ft / 0 m 0 ft / 0 m

Approach Navaids

Runway Type Ident Frequency Range Bearing (true) Bearing (mag) Slope Elevation
16 Localiser IBLI 108.50 MHz 18 nm / 33 km 179.83° 163.79° - 152 ft / 46 m (AMSL)
16 Glidescope IBLI 108.50 MHz 10 nm / 19 km 179.88° 163.84° 3.00° 154 ft / 47 m (AMSL)

Popular Alternatives